»·PEaware :: PACER38 KPHX-KONT

PACER38 :: KPHX-KONT

FLIGHT INFORMATION

Flight Status: Arrived
Operator: Unknown
More flights by this operator :: More flights under this callsign
Pilot: Brian Winney (2822)
Aircraft: NORTHROP T-38 AT-38 TALON
(T38)
More flights by this aircraft type
Origin: KPHX Phoenix Sky Harbor Intl
United States
Destination: KONT Ontario Intl
United States
More flights between these airports :: More routes between these airports
Route: +BXK4 PSP SETER4
File this flight plan on PilotEdge
Remarks: Congrats on Expansion
Altitude:
(Current/Filed)
26,000ft
Speed:
(Current/Filed)
523kts
Departed: 27-Dec-16 10:54 AM
Arrived: 27-Dec-16 11:38 AM
Distance/Time
Traveled:
282nm/0:44
Distance/Time
To Go:
Arrived

Flight Plot

Page will automatically refresh every two minutes.

Flight plan parsing failed; only flown route is shown


Map Options




Map Legend


Flown Route
Filed Route
Departure Airport
Arrival Airport
Navaid (VOR, NDB)
Fix

Horizontal Profiles

Position Reports

Time Latitude Longitude Heading Altitude Ground
Speed
27-Dec-16 10:29 33.427176 -112.011370 359 1138ft 0kts
27-Dec-16 10:30 33.427177 -112.011370 359 1138ft 0kts
27-Dec-16 10:30 33.427179 -112.011370 359 1138ft 0kts
27-Dec-16 10:31 33.427181 -112.011370 359 1138ft 0kts
27-Dec-16 10:32 33.427182 -112.011370 359 1138ft 0kts
27-Dec-16 10:33 33.427184 -112.011370 359 1138ft 0kts
27-Dec-16 10:34 33.427186 -112.011370 359 1138ft 0kts
27-Dec-16 10:35 33.427188 -112.011370 359 1138ft 0kts
27-Dec-16 10:36 33.427190 -112.011370 359 1138ft 0kts
27-Dec-16 10:37 33.427192 -112.011370 359 1138ft 0kts
27-Dec-16 10:38 33.427194 -112.011370 359 1138ft 0kts
27-Dec-16 10:39 33.427196 -112.011370 359 1138ft 0kts
27-Dec-16 10:40 33.427198 -112.011370 359 1138ft 0kts
27-Dec-16 10:41 33.427200 -112.011370 359 1138ft 0kts
27-Dec-16 10:42 33.427203 -112.011370 359 1138ft 0kts
27-Dec-16 10:43 33.427205 -112.011370 359 1138ft 0kts
27-Dec-16 10:44 33.427207 -112.011370 359 1138ft 0kts
27-Dec-16 10:45 33.427209 -112.011370 359 1138ft 0kts
27-Dec-16 10:46 33.427471 -112.011380 347 1138ft 5kts
27-Dec-16 10:47 33.427740 -112.014826 270 1138ft 14kts
27-Dec-16 10:48 33.427744 -112.020235 270 1138ft 16kts
27-Dec-16 10:49 33.427742 -112.025615 269 1138ft 17kts
27-Dec-16 10:50 33.428032 -112.026987 353 1138ft 0kts
27-Dec-16 10:51 33.428034 -112.026988 353 1138ft 0kts
27-Dec-16 10:52 33.428481 -112.026998 359 1138ft 7kts
27-Dec-16 10:53 33.428809 -112.019464 89 1139ft 147kts
27-Dec-16 10:54 33.435625 -111.931735 81 3491ft 315kts
27-Dec-16 10:55 33.432915 -111.826377 110 7841ft 328kts
27-Dec-16 10:56 33.370583 -111.756070 186 11917ft 361kts
27-Dec-16 10:57 33.321777 -111.851239 276 15768ft 391kts
27-Dec-16 10:58 33.335574 -111.983274 277 19785ft 407kts
27-Dec-16 10:59 33.352467 -112.122086 278 22907ft 431kts
27-Dec-16 11:00 33.370553 -112.266308 278 25773ft 450kts
27-Dec-16 11:01 33.390537 -112.420826 278 26031ft 482kts
27-Dec-16 11:02 33.412214 -112.582920 279 26016ft 502kts
27-Dec-16 11:03 33.436914 -112.749370 281 26030ft 514kts
27-Dec-16 11:04 33.467223 -112.918119 281 26009ft 523kts
27-Dec-16 11:05 33.500346 -113.088310 283 26011ft 528kts
27-Dec-16 11:06 33.534409 -113.260424 282 26022ft 531kts
27-Dec-16 11:07 33.567248 -113.433028 282 26034ft 533kts
27-Dec-16 11:08 33.600291 -113.606342 282 25998ft 534kts
27-Dec-16 11:09 33.633797 -113.780567 283 25963ft 535kts
27-Dec-16 11:10 33.667532 -113.954202 283 25992ft 535kts
27-Dec-16 11:11 33.701624 -114.127766 283 26044ft 534kts
27-Dec-16 11:12 33.736278 -114.301942 283 26041ft 535kts
27-Dec-16 11:13 33.769280 -114.476373 277 25995ft 536kts
27-Dec-16 11:14 33.777281 -114.655059 272 25986ft 536kts
27-Dec-16 11:15 33.786242 -114.833830 273 26015ft 536kts
27-Dec-16 11:16 33.797197 -115.012989 274 26038ft 536kts
27-Dec-16 11:17 33.807725 -115.191607 273 26060ft 537kts
27-Dec-16 11:18 33.815266 -115.371173 273 25947ft 538kts
27-Dec-16 11:19 33.826954 -115.550825 274 25992ft 537kts
27-Dec-16 11:20 33.839101 -115.729786 274 26000ft 537kts
27-Dec-16 11:21 33.849219 -115.908293 272 25518ft 529kts
27-Dec-16 11:22 33.857915 -116.084058 273 24131ft 534kts
27-Dec-16 11:23 33.866126 -116.262566 270 22675ft 525kts
27-Dec-16 11:24 33.868861 -116.435074 271 19927ft 504kts
27-Dec-16 11:25 33.878177 -116.597040 273 17642ft 470kts
27-Dec-16 11:26 33.885877 -116.748599 273 15304ft 440kts
27-Dec-16 11:27 33.894130 -116.892506 285 12335ft 419kts
27-Dec-16 11:28 33.958318 -116.990792 313 9912ft 335kts
27-Dec-16 11:29 34.008161 -117.080793 294 7807ft 326kts
27-Dec-16 11:30 34.041443 -117.181629 285 6473ft 319kts
27-Dec-16 11:31 34.055274 -117.277589 271 5018ft 254kts
27-Dec-16 11:32 34.055203 -117.349543 269 4185ft 199kts
27-Dec-16 11:33 34.055210 -117.413533 270 3637ft 177kts
27-Dec-16 11:35 34.055139 -117.470416 269 2681ft 165kts
27-Dec-16 11:36 34.054996 -117.526613 269 1902ft 169kts
27-Dec-16 11:37 34.055011 -117.582772 269 968ft 161kts
27-Dec-16 11:38 34.055000 -117.604412 270 948ft 8kts
27-Dec-16 11:39 34.054362 -117.604079 136 948ft 0kts
27-Dec-16 11:40 34.052954 -117.604263 176 948ft 9kts

Navigation Log

Ident Type Via Name
Flight plan parsing failed, navigation log unavailable